createdAt,value
2022-10-04T00:00:28.734Z,7.85
2022-10-04T00:02:34.488Z,7.03
2022-10-04T00:04:43.946Z,5.70
2022-10-04T00:06:50.028Z,5.90
2022-10-04T00:08:56.287Z,6.28
2022-10-04T00:11:05.132Z,6.57
2022-10-04T00:13:16.319Z,6.13
2022-10-04T00:15:21.787Z,5.32
2022-10-04T00:17:27.876Z,6.18
2022-10-04T00:19:43.338Z,6.20
2022-10-04T00:22:12.619Z,7.03
2022-10-04T00:24:22.113Z,6.55
2022-10-04T00:27:09.175Z,5.43
2022-10-04T00:29:31.967Z,4.63
2022-10-04T00:31:35.000Z,7.47
2022-10-04T00:33:39.787Z,6.32
2022-10-04T00:35:50.751Z,7.38
2022-10-04T00:37:58.442Z,6.45
2022-10-04T00:40:12.404Z,5.85
2022-10-04T00:42:50.841Z,8.63
2022-10-04T00:44:58.102Z,5.22
2022-10-04T00:47:02.604Z,5.35
2022-10-04T00:49:08.634Z,4.70
2022-10-04T00:51:16.220Z,4.78
2022-10-04T00:53:31.178Z,7.53
2022-10-04T00:55:37.584Z,8.88
2022-10-04T00:57:43.015Z,12.13
2022-10-04T00:59:47.958Z,5.70
2022-10-04T01:01:54.082Z,6.25
2022-10-04T01:03:58.864Z,4.93
2022-10-04T01:06:05.979Z,4.82
2022-10-04T01:08:12.020Z,5.82
2022-10-04T01:10:19.737Z,5.00
2022-10-04T01:12:39.906Z,5.63
2022-10-04T01:14:49.111Z,5.15
2022-10-04T01:16:52.781Z,4.28
2022-10-04T01:18:56.190Z,4.30
2022-10-04T01:21:01.741Z,4.18
2022-10-04T01:23:06.452Z,5.10
2022-10-04T01:25:09.737Z,5.30
2022-10-04T01:27:38.564Z,3.97
2022-10-04T01:29:41.558Z,3.40
2022-10-04T01:31:46.575Z,4.13
2022-10-04T01:33:51.325Z,5.15
2022-10-04T01:35:54.315Z,5.13
2022-10-04T01:37:57.321Z,5.93
2022-10-04T01:40:02.269Z,7.03
2022-10-04T01:42:08.531Z,6.03
2022-10-04T01:44:14.282Z,6.60
2022-10-04T01:46:21.576Z,7.15
2022-10-04T01:48:26.616Z,6.70
2022-10-04T01:50:31.367Z,6.18
2022-10-04T01:52:36.951Z,6.10
2022-10-04T01:54:42.837Z,7.70
2022-10-04T01:56:49.402Z,8.98
2022-10-04T01:58:54.076Z,8.43
2022-10-04T02:01:01.045Z,8.18
2022-10-04T02:03:06.202Z,8.63
2022-10-04T02:05:12.232Z,7.55
2022-10-04T02:07:16.910Z,8.25
2022-10-04T02:09:21.135Z,7.03
2022-10-04T02:11:26.532Z,7.07
2022-10-04T02:13:41.789Z,7.82
2022-10-04T02:15:44.885Z,7.90
2022-10-04T02:17:48.762Z,8.10
2022-10-04T02:19:52.155Z,5.78
2022-10-04T02:21:56.733Z,7.05
2022-10-04T02:23:59.743Z,6.03
2022-10-04T02:26:05.768Z,5.82
2022-10-04T02:28:11.722Z,6.25
2022-10-04T02:30:16.166Z,6.18
2022-10-04T02:32:36.729Z,5.10
2022-10-04T02:34:40.767Z,5.95
2022-10-04T02:36:43.746Z,5.20
2022-10-04T02:38:52.636Z,5.35
2022-10-04T02:40:58.619Z,5.78
2022-10-04T02:43:04.433Z,8.55
2022-10-04T02:45:13.685Z,9.93
2022-10-04T02:47:20.491Z,6.30
2022-10-04T02:49:29.854Z,5.53
2022-10-04T02:51:35.150Z,6.47
2022-10-04T02:53:43.346Z,5.88
2022-10-04T02:55:47.581Z,6.10
2022-10-04T02:57:52.420Z,4.75
2022-10-04T03:00:08.359Z,3.85
2022-10-04T03:02:29.499Z,5.43
2022-10-04T03:04:34.829Z,4.70
2022-10-04T03:06:37.814Z,4.05
2022-10-04T03:08:47.444Z,5.18
2022-10-04T03:10:50.756Z,4.22
2022-10-04T03:12:54.108Z,3.97
2022-10-04T03:14:57.131Z,5.10
2022-10-04T03:17:03.942Z,4.50
2022-10-04T03:19:08.831Z,4.80
2022-10-04T03:21:14.554Z,4.63
2022-10-04T03:23:18.807Z,4.63
2022-10-04T03:25:23.935Z,4.50
2022-10-04T03:27:33.117Z,5.55
2022-10-04T03:29:36.429Z,5.10
2022-10-04T03:31:42.146Z,5.78
2022-10-04T03:33:45.576Z,5.75
2022-10-04T03:35:51.750Z,7.30
2022-10-04T03:37:54.728Z,7.68
2022-10-04T03:39:58.303Z,8.65
2022-10-04T03:42:04.671Z,6.07
2022-10-04T03:44:09.059Z,7.85
2022-10-04T03:46:13.283Z,5.82
2022-10-04T03:48:30.194Z,6.53
2022-10-04T03:50:36.414Z,5.32
2022-10-04T03:52:51.147Z,5.10
2022-10-04T03:54:55.898Z,6.13
2022-10-04T03:56:59.811Z,5.63
2022-10-04T03:59:04.143Z,9.38
2022-10-04T04:01:15.138Z,4.90
2022-10-04T04:03:20.910Z,5.90
2022-10-04T04:05:26.837Z,6.15
2022-10-04T04:07:31.364Z,4.97
2022-10-04T04:09:40.697Z,5.43
2022-10-04T04:11:44.275Z,5.30
2022-10-04T04:13:50.806Z,5.50
2022-10-04T04:15:55.685Z,6.45
2022-10-04T04:18:01.385Z,7.43
2022-10-04T04:20:07.837Z,5.40
2022-10-04T04:22:15.971Z,5.10
2022-10-04T04:24:23.742Z,4.72
2022-10-04T04:26:34.916Z,6.05
2022-10-04T04:28:41.485Z,4.97
2022-10-04T04:30:46.452Z,5.13
2022-10-04T04:32:51.310Z,5.13
2022-10-04T04:34:55.180Z,6.00
2022-10-04T04:36:59.925Z,5.50
2022-10-04T04:39:42.755Z,5.43
2022-10-04T04:41:50.539Z,12.60
2022-10-04T04:43:54.030Z,15.85
2022-10-04T04:46:22.420Z,12.30
2022-10-04T04:48:22.807Z,10.57
2022-10-04T04:50:27.966Z,7.55
2022-10-04T04:52:32.695Z,7.20
2022-10-04T04:54:35.735Z,7.22
2022-10-04T04:56:38.768Z,7.70
2022-10-04T04:58:46.051Z,7.75
2022-10-04T05:00:54.604Z,6.53
2022-10-04T05:02:59.123Z,8.57
2022-10-04T05:05:22.400Z,10.50
2022-10-04T05:07:25.503Z,9.30
2022-10-04T05:09:31.323Z,6.57
2022-10-04T05:11:36.236Z,9.25
2022-10-04T05:13:44.071Z,6.05
2022-10-04T05:15:47.684Z,7.15
2022-10-04T05:17:50.728Z,5.85
2022-10-04T05:19:54.686Z,5.97
2022-10-04T05:21:58.990Z,16.48
2022-10-04T05:24:10.851Z,8.05
2022-10-04T05:26:15.412Z,7.15
2022-10-04T05:28:19.215Z,7.03
2022-10-04T05:30:45.380Z,4.88
2022-10-04T05:32:54.815Z,6.07
2022-10-04T05:34:59.460Z,5.70
2022-10-04T05:37:22.248Z,7.22
2022-10-04T05:39:28.652Z,6.32
2022-10-04T05:41:35.981Z,4.70
2022-10-04T05:43:46.785Z,4.40
2022-10-04T05:46:12.290Z,4.93
2022-10-04T05:48:15.380Z,5.72
2022-10-04T05:50:21.142Z,4.72
2022-10-04T05:52:30.495Z,4.97
2022-10-04T05:54:37.873Z,6.22
2022-10-04T05:57:19.194Z,5.15
2022-10-04T05:59:42.167Z,6.07
2022-10-04T06:01:53.997Z,8.60
2022-10-04T06:04:09.874Z,9.57
2022-10-04T06:06:17.571Z,8.00
2022-10-04T06:08:30.320Z,7.15
2022-10-04T06:10:53.346Z,8.27
2022-10-04T06:13:00.396Z,6.75
2022-10-04T06:15:27.011Z,5.38
2022-10-04T06:17:50.294Z,6.20
2022-10-04T06:20:15.340Z,5.70
2022-10-04T06:22:19.440Z,5.03
2022-10-04T06:24:27.078Z,8.88
2022-10-04T06:26:35.585Z,9.50
2022-10-04T06:28:41.904Z,5.07
2022-10-04T06:30:56.139Z,17.90
2022-10-04T06:33:09.963Z,13.23
2022-10-04T06:35:36.703Z,8.45
2022-10-04T06:38:14.747Z,8.70
2022-10-04T06:40:50.368Z,9.15
2022-10-04T06:43:04.199Z,8.98
2022-10-04T06:45:21.972Z,12.52
2022-10-04T06:47:39.166Z,5.80
2022-10-04T06:49:47.372Z,5.57
2022-10-04T06:52:17.402Z,6.10
2022-10-04T06:54:35.216Z,5.22
2022-10-04T06:56:55.958Z,5.35
2022-10-04T06:59:19.429Z,5.45
2022-10-04T07:01:28.646Z,5.32
2022-10-04T07:03:37.963Z,5.05
2022-10-04T07:05:46.367Z,6.18
2022-10-04T07:08:06.390Z,5.65
2022-10-04T07:10:32.250Z,4.95
2022-10-04T07:12:36.424Z,4.97
2022-10-04T07:14:44.545Z,5.45
2022-10-04T07:16:49.581Z,8.82
2022-10-04T07:18:58.980Z,5.97
2022-10-04T07:21:06.963Z,5.43
2022-10-04T07:23:15.627Z,6.68
2022-10-04T07:25:22.586Z,5.70
2022-10-04T07:27:30.162Z,6.00
2022-10-04T07:29:38.741Z,5.90
2022-10-04T07:31:45.772Z,7.88
2022-10-04T07:33:51.563Z,5.22
2022-10-04T07:36:00.437Z,6.47
2022-10-04T07:38:11.612Z,5.35
2022-10-04T07:40:22.294Z,5.60
2022-10-04T07:42:30.845Z,7.10
2022-10-04T07:44:36.516Z,8.57
2022-10-04T07:46:46.080Z,6.65
2022-10-04T07:48:49.568Z,7.85
2022-10-04T07:51:03.324Z,6.22
2022-10-04T07:53:10.149Z,6.95
2022-10-04T07:55:20.241Z,5.60
2022-10-04T07:57:27.090Z,6.03
2022-10-04T07:59:39.246Z,6.00
2022-10-04T08:01:47.392Z,5.40
2022-10-04T08:04:01.575Z,10.60
2022-10-04T08:06:11.474Z,10.60
2022-10-04T08:08:27.191Z,8.20
2022-10-04T08:10:34.046Z,6.20
2022-10-04T08:12:47.680Z,6.43
2022-10-04T08:14:56.760Z,5.82
2022-10-04T08:17:15.437Z,5.90
2022-10-04T08:19:33.307Z,5.80
2022-10-04T08:21:42.614Z,6.70
2022-10-04T08:23:56.976Z,7.00
2022-10-04T08:26:08.881Z,6.60
2022-10-04T08:28:39.028Z,6.93
2022-10-04T08:30:53.779Z,6.30
2022-10-04T08:33:06.302Z,5.53
2022-10-04T08:35:46.699Z,5.47
2022-10-04T08:38:00.582Z,5.60
2022-10-04T08:40:44.112Z,5.90
2022-10-04T08:43:09.322Z,6.50
2022-10-04T08:45:54.089Z,6.30
2022-10-04T08:48:40.055Z,6.53
2022-10-04T08:51:03.729Z,6.20
2022-10-04T08:53:33.360Z,6.33
2022-10-04T08:55:48.630Z,5.93
2022-10-04T08:58:15.252Z,5.67
2022-10-04T09:00:22.077Z,5.50
2022-10-04T09:02:41.639Z,5.90
2022-10-04T09:04:58.628Z,5.10
2022-10-04T09:07:29.628Z,4.43
2022-10-04T09:10:06.750Z,4.97
2022-10-04T09:12:44.239Z,4.37
2022-10-04T09:15:03.072Z,4.87
2022-10-04T09:17:22.263Z,4.60
2022-10-04T09:19:38.565Z,4.50
2022-10-04T09:21:50.741Z,4.33
2022-10-04T09:24:22.896Z,4.50
2022-10-04T09:26:33.170Z,4.90
2022-10-04T09:29:05.145Z,5.73
2022-10-04T09:31:23.285Z,3.77
2022-10-04T09:33:44.455Z,3.30
2022-10-04T09:36:11.069Z,3.10
2022-10-04T09:38:48.652Z,3.00
2022-10-04T09:41:22.546Z,3.60
2022-10-04T09:43:45.802Z,3.30
2022-10-04T09:46:00.678Z,3.23
2022-10-04T09:48:25.155Z,2.90
2022-10-04T09:50:42.846Z,2.90
2022-10-04T09:52:52.124Z,2.83
2022-10-04T09:55:08.470Z,3.47
2022-10-04T09:57:30.212Z,2.60
2022-10-04T09:59:53.917Z,2.73
2022-10-04T10:02:29.507Z,2.60
2022-10-04T10:04:44.533Z,2.90
2022-10-04T10:06:56.567Z,3.10
2022-10-04T10:09:09.158Z,2.93
2022-10-04T10:11:34.750Z,3.03
2022-10-04T10:14:06.594Z,2.80
2022-10-04T10:16:42.016Z,3.20
2022-10-04T10:18:53.637Z,2.80
2022-10-04T10:21:12.747Z,2.80
2022-10-04T10:23:30.358Z,3.23
2022-10-04T10:25:47.794Z,2.67
2022-10-04T10:27:58.603Z,3.33
2022-10-04T10:30:12.514Z,3.30
2022-10-04T10:32:34.563Z,2.70
2022-10-04T10:35:01.771Z,2.70
2022-10-04T10:37:15.918Z,3.30
2022-10-04T10:40:03.451Z,3.10
2022-10-04T10:42:13.158Z,3.20
2022-10-04T10:44:26.785Z,3.37
2022-10-04T10:46:44.080Z,2.90
2022-10-04T10:49:06.016Z,3.00
2022-10-04T10:51:15.177Z,3.33
2022-10-04T10:53:48.133Z,3.30
2022-10-04T10:56:20.502Z,3.00
2022-10-04T10:59:01.651Z,2.80
2022-10-04T11:01:32.538Z,3.03
2022-10-04T11:03:59.578Z,3.07
2022-10-04T11:06:20.446Z,3.33
2022-10-04T11:08:46.476Z,3.07
2022-10-04T11:11:13.545Z,2.70
2022-10-04T11:13:41.543Z,3.40
2022-10-04T11:16:07.207Z,2.83
2022-10-04T11:18:34.641Z,2.97
2022-10-04T11:21:05.681Z,2.73
2022-10-04T11:23:45.825Z,2.87
2022-10-04T11:25:59.642Z,3.10
2022-10-04T11:28:06.166Z,2.50
2022-10-04T11:30:16.820Z,2.70
2022-10-04T11:32:45.543Z,3.03
2022-10-04T11:35:21.830Z,2.60
2022-10-04T11:37:43.566Z,3.47
2022-10-04T11:40:05.593Z,3.10
2022-10-04T11:42:19.215Z,2.30
2022-10-04T11:44:43.583Z,3.10
2022-10-04T11:46:51.595Z,3.23
2022-10-04T11:49:04.631Z,2.80
2022-10-04T11:51:45.271Z,3.30
2022-10-04T11:54:30.189Z,2.60
2022-10-04T11:57:00.031Z,2.97
2022-10-04T11:59:20.298Z,3.00
2022-10-04T12:01:43.860Z,2.90
2022-10-04T12:04:03.971Z,3.10
2022-10-04T12:06:18.281Z,2.57
2022-10-04T12:08:31.019Z,2.50
2022-10-04T12:10:37.604Z,2.60
2022-10-04T12:13:05.473Z,2.70
2022-10-04T12:15:28.030Z,2.50
2022-10-04T12:17:56.550Z,2.87
2022-10-04T12:20:16.264Z,2.77
2022-10-04T12:22:29.050Z,2.80
2022-10-04T12:24:49.791Z,2.90
2022-10-04T12:27:18.730Z,2.67
2022-10-04T12:30:06.661Z,2.20
2022-10-04T12:32:15.448Z,2.40
2022-10-04T12:34:24.648Z,2.20
2022-10-04T12:36:36.889Z,2.70
2022-10-04T12:39:14.863Z,2.53
2022-10-04T12:41:29.576Z,2.00
2022-10-04T12:43:40.133Z,2.60
2022-10-04T12:45:52.757Z,2.40
2022-10-04T12:48:06.991Z,2.40
2022-10-04T12:50:18.721Z,2.50
2022-10-04T12:52:24.568Z,2.40
2022-10-04T12:54:34.411Z,2.20
2022-10-04T12:56:47.530Z,2.70
2022-10-04T12:59:01.616Z,2.30
2022-10-04T13:01:13.364Z,2.57
2022-10-04T13:03:26.970Z,2.30
2022-10-04T13:05:35.372Z,2.10
2022-10-04T13:07:51.266Z,2.30
2022-10-04T13:10:26.496Z,2.10
2022-10-04T13:12:38.524Z,2.90
2022-10-04T13:14:49.329Z,2.70
2022-10-04T13:19:23.858Z,2.20
2022-10-04T13:22:03.494Z,2.20
2022-10-04T13:24:14.133Z,2.27
2022-10-04T13:26:30.055Z,1.93
2022-10-04T13:28:39.123Z,2.80
2022-10-04T13:30:48.645Z,2.10
2022-10-04T13:33:00.097Z,2.50
2022-10-04T13:35:12.592Z,2.37
2022-10-04T13:37:30.090Z,2.57
2022-10-04T13:39:44.951Z,2.00
2022-10-04T13:42:12.329Z,2.20
2022-10-04T13:44:34.184Z,1.80
2022-10-04T13:46:41.286Z,2.37
2022-10-04T13:48:55.429Z,2.50
2022-10-04T13:51:19.316Z,2.20
2022-10-04T13:53:53.772Z,1.93
2022-10-04T13:56:19.111Z,1.87
2022-10-04T13:58:32.784Z,2.87
2022-10-04T14:00:51.509Z,2.47
2022-10-04T14:03:04.839Z,1.80
2022-10-04T14:05:52.390Z,1.47
2022-10-04T14:08:10.547Z,2.00
2022-10-04T14:10:45.865Z,1.60
2022-10-04T14:13:06.068Z,1.93
2022-10-04T14:15:30.811Z,1.80
2022-10-04T14:17:56.190Z,2.07
2022-10-04T14:20:25.857Z,1.90
2022-10-04T14:23:04.188Z,2.10
2022-10-04T14:25:35.706Z,1.77
2022-10-04T14:28:15.543Z,2.23
2022-10-04T14:30:21.316Z,1.90
2022-10-04T14:32:49.967Z,2.00
2022-10-04T14:34:58.168Z,1.97
2022-10-04T14:37:15.042Z,2.10
2022-10-04T14:40:02.978Z,1.80
2022-10-04T14:42:32.346Z,1.87
2022-10-04T14:44:56.325Z,1.90
2022-10-04T14:47:16.098Z,1.93
2022-10-04T14:49:24.525Z,2.03
2022-10-04T14:51:41.682Z,1.90
2022-10-04T14:53:53.628Z,2.27
2022-10-04T14:56:26.184Z,2.00
2022-10-04T14:58:38.368Z,2.30
2022-10-04T15:01:02.929Z,1.80
2022-10-04T15:03:28.855Z,1.80
2022-10-04T15:05:44.327Z,2.17
2022-10-04T15:07:49.959Z,2.07
2022-10-04T15:09:55.984Z,1.83
2022-10-04T15:12:27.131Z,1.90
2022-10-04T15:14:38.233Z,1.87
2022-10-04T15:16:47.585Z,1.90
2022-10-04T15:18:54.727Z,1.90
2022-10-04T15:21:01.053Z,2.00
2022-10-04T15:23:17.702Z,1.87
2022-10-04T15:25:41.751Z,1.97
2022-10-04T15:27:53.721Z,2.07
2022-10-04T15:30:09.356Z,2.20
2022-10-04T15:32:24.219Z,2.30
2022-10-04T15:34:33.383Z,2.00
2022-10-04T15:36:48.258Z,2.27
2022-10-04T15:38:57.169Z,2.10
2022-10-04T15:41:03.528Z,2.00
2022-10-04T15:43:19.898Z,2.10
2022-10-04T15:45:36.436Z,2.43
2022-10-04T15:47:55.917Z,2.10
2022-10-04T15:50:07.592Z,2.00
2022-10-04T15:52:41.791Z,2.30
2022-10-04T15:55:03.488Z,2.53
2022-10-04T15:57:19.391Z,2.47
2022-10-04T15:59:36.677Z,2.30
2022-10-04T16:01:55.971Z,2.07
2022-10-04T16:04:21.787Z,2.07
2022-10-04T16:06:26.982Z,2.30
2022-10-04T16:08:48.572Z,2.30
2022-10-04T16:11:07.740Z,2.40
2022-10-04T16:13:27.554Z,2.50
2022-10-04T16:15:32.887Z,2.47
2022-10-04T16:18:12.294Z,2.37
2022-10-04T16:20:33.425Z,2.70
2022-10-04T16:22:38.174Z,2.97
2022-10-04T16:24:45.519Z,2.80
2022-10-04T16:27:20.383Z,3.00
2022-10-04T16:29:29.959Z,2.37
2022-10-04T16:31:43.818Z,2.90
2022-10-04T16:33:56.318Z,3.10
2022-10-04T16:36:21.650Z,2.73
2022-10-04T16:38:26.244Z,2.77
2022-10-04T16:40:35.551Z,3.13
2022-10-04T16:42:49.903Z,3.83
2022-10-04T16:44:56.534Z,3.47
2022-10-04T16:47:03.088Z,3.10
2022-10-04T16:49:20.011Z,3.00
2022-10-04T16:51:48.699Z,2.87
2022-10-04T16:53:54.596Z,2.60
2022-10-04T16:56:02.308Z,2.77
2022-10-04T16:58:50.417Z,2.87
2022-10-04T17:01:34.099Z,2.90
2022-10-04T17:03:37.854Z,2.80
2022-10-04T17:05:54.333Z,3.23
2022-10-04T17:08:21.690Z,5.80
2022-10-04T17:10:34.155Z,37.60
2022-10-04T17:12:45.602Z,22.13
2022-10-04T17:14:58.627Z,11.03
2022-10-04T17:17:03.390Z,6.50
2022-10-04T17:19:20.748Z,4.80
2022-10-04T17:21:29.533Z,5.43
2022-10-04T17:24:03.396Z,5.87
2022-10-04T17:26:14.135Z,6.20
2022-10-04T17:28:26.175Z,9.57
2022-10-04T17:30:31.810Z,6.90
2022-10-04T17:32:45.831Z,7.83
2022-10-04T17:34:58.505Z,10.17
2022-10-04T17:37:06.657Z,11.00
2022-10-04T17:39:33.024Z,9.80
2022-10-04T17:41:50.302Z,8.60
2022-10-04T17:44:17.516Z,6.97
2022-10-04T17:46:23.768Z,5.37
2022-10-04T17:48:47.272Z,6.30
2022-10-04T17:51:13.932Z,5.77
2022-10-04T17:53:39.898Z,5.10
2022-10-04T17:55:47.957Z,5.60
2022-10-04T17:57:54.352Z,7.97
2022-10-04T18:00:08.324Z,6.30
2022-10-04T18:02:13.377Z,6.13
2022-10-04T18:04:20.001Z,7.30
2022-10-04T18:06:30.337Z,12.87
2022-10-04T18:08:43.194Z,16.43
2022-10-04T18:10:51.385Z,13.60
2022-10-04T18:12:59.665Z,14.17
2022-10-04T18:15:07.929Z,12.67
2022-10-04T18:17:15.556Z,9.90
2022-10-04T18:19:37.087Z,7.67
2022-10-04T18:21:49.861Z,7.10
2022-10-04T18:23:55.713Z,7.70
2022-10-04T18:26:03.649Z,6.70
2022-10-04T18:28:15.247Z,7.03
2022-10-04T18:30:21.553Z,6.77
2022-10-04T18:32:36.108Z,7.57
2022-10-04T18:34:40.263Z,7.57
2022-10-04T18:36:54.531Z,7.37
2022-10-04T18:39:17.783Z,7.70
2022-10-04T18:41:23.236Z,7.00
2022-10-04T18:43:29.638Z,7.37
2022-10-04T18:45:33.810Z,8.67
2022-10-04T18:47:39.113Z,9.03
2022-10-04T18:49:48.295Z,10.70
2022-10-04T18:52:03.091Z,9.40
2022-10-04T18:54:13.666Z,9.27
2022-10-04T18:56:17.778Z,8.40
2022-10-04T18:58:50.290Z,8.10
2022-10-04T19:01:15.600Z,8.03
2022-10-04T19:03:26.302Z,7.90
2022-10-04T19:05:37.725Z,7.50
2022-10-04T19:07:46.473Z,7.37
2022-10-04T19:10:08.079Z,8.30
2022-10-04T19:12:14.235Z,7.77
2022-10-04T19:14:25.047Z,7.93
2022-10-04T19:16:37.201Z,7.47
2022-10-04T19:18:58.416Z,6.73
2022-10-04T19:21:08.021Z,7.50
2022-10-04T19:23:19.596Z,7.13
2022-10-04T19:25:33.315Z,8.17
2022-10-04T19:27:39.324Z,7.30
2022-10-04T19:29:57.403Z,7.73
2022-10-04T19:32:03.257Z,7.70
2022-10-04T19:34:11.598Z,7.47
2022-10-04T19:36:26.609Z,7.83
2022-10-04T19:38:55.612Z,8.03
2022-10-04T19:41:04.652Z,8.17
2022-10-04T19:43:12.010Z,8.80
2022-10-04T19:45:24.982Z,8.33
2022-10-04T19:47:40.240Z,8.20
2022-10-04T19:49:47.357Z,8.60
2022-10-04T19:51:54.448Z,9.00
2022-10-04T19:54:04.763Z,8.87
2022-10-04T19:56:10.376Z,8.43
2022-10-04T19:58:25.734Z,8.97
2022-10-04T20:00:30.157Z,9.30
2022-10-04T20:02:33.201Z,8.40
2022-10-04T20:04:37.914Z,7.70
2022-10-04T20:06:49.269Z,9.20
2022-10-04T20:08:59.365Z,8.00
2022-10-04T20:11:16.047Z,7.87
2022-10-04T20:13:23.554Z,8.30
2022-10-04T20:15:46.713Z,8.87
2022-10-04T20:17:50.929Z,7.63
2022-10-04T20:19:54.017Z,8.40
2022-10-04T20:21:58.045Z,7.97
2022-10-04T20:24:01.614Z,7.47
2022-10-04T20:26:06.174Z,7.80
2022-10-04T20:28:09.437Z,8.50
2022-10-04T20:30:14.359Z,8.50
2022-10-04T20:32:50.752Z,8.50
2022-10-04T20:34:55.656Z,7.80
2022-10-04T20:36:58.801Z,8.40
2022-10-04T20:39:03.027Z,8.03
2022-10-04T20:41:06.216Z,7.53
2022-10-04T20:43:30.087Z,8.30
2022-10-04T20:45:33.243Z,8.17
2022-10-04T20:47:39.774Z,8.10
2022-10-04T20:49:44.976Z,8.10
2022-10-04T20:51:50.969Z,8.40
2022-10-04T20:53:54.208Z,8.10
2022-10-04T20:56:11.938Z,7.90
2022-10-04T20:58:26.570Z,8.10
2022-10-04T21:00:34.419Z,8.57
2022-10-04T21:02:37.623Z,9.23
2022-10-04T21:04:44.162Z,10.10
2022-10-04T21:06:55.165Z,9.70
2022-10-04T21:08:58.222Z,8.83
2022-10-04T21:11:23.803Z,9.13
2022-10-04T21:13:54.742Z,8.60
2022-10-04T21:15:57.807Z,7.70
2022-10-04T21:18:03.133Z,7.60
2022-10-04T21:20:07.229Z,7.80
2022-10-04T21:22:12.503Z,7.80
2022-10-04T21:24:36.367Z,7.50
2022-10-04T21:26:39.469Z,8.30
2022-10-04T21:28:42.788Z,7.97
2022-10-04T21:30:45.981Z,7.63
2022-10-04T21:32:49.238Z,7.60
2022-10-04T21:34:54.429Z,7.73
2022-10-04T21:36:58.742Z,7.50
2022-10-04T21:39:03.177Z,8.13
2022-10-04T21:41:06.584Z,7.60
2022-10-04T21:43:09.602Z,7.50
2022-10-04T21:45:12.643Z,7.40
2022-10-04T21:47:15.880Z,8.00
2022-10-04T21:49:18.981Z,7.73
2022-10-04T21:51:21.961Z,7.47
2022-10-04T21:53:24.998Z,8.03
2022-10-04T21:55:29.398Z,8.30
2022-10-04T21:57:35.676Z,8.13
2022-10-04T21:59:39.111Z,8.10
2022-10-04T22:01:42.073Z,7.47
2022-10-04T22:03:45.083Z,7.13
2022-10-04T22:05:48.116Z,7.33
2022-10-04T22:07:51.158Z,7.93
2022-10-04T22:09:54.082Z,7.60
2022-10-04T22:11:58.420Z,7.10
2022-10-04T22:14:01.582Z,7.80
2022-10-04T22:16:04.997Z,7.67
2022-10-04T22:18:08.185Z,7.50
2022-10-04T22:20:11.168Z,7.20
2022-10-04T22:22:15.933Z,7.20
2022-10-04T22:24:20.533Z,7.30
2022-10-04T22:26:24.403Z,7.90
2022-10-04T22:28:30.816Z,7.20
2022-10-04T22:30:34.343Z,8.57
2022-10-04T22:32:39.044Z,8.70
2022-10-04T22:34:42.007Z,8.00
2022-10-04T22:36:46.081Z,7.77
2022-10-04T22:38:52.323Z,8.30
2022-10-04T22:40:55.371Z,7.50
2022-10-04T22:43:00.658Z,7.93
2022-10-04T22:45:09.417Z,7.57
2022-10-04T22:47:14.344Z,7.83
2022-10-04T22:49:19.679Z,7.37
2022-10-04T22:51:22.713Z,8.10
2022-10-04T22:53:25.851Z,7.73
2022-10-04T22:55:28.912Z,7.63
2022-10-04T22:57:32.338Z,7.70
2022-10-04T22:59:37.051Z,7.37
2022-10-04T23:01:41.638Z,8.13
2022-10-04T23:03:46.736Z,8.50
2022-10-04T23:05:49.736Z,7.53
2022-10-04T23:07:52.742Z,7.47
2022-10-04T23:09:55.726Z,7.90
2022-10-04T23:11:58.792Z,7.47
2022-10-04T23:14:02.009Z,7.83
2022-10-04T23:16:12.608Z,7.43
2022-10-04T23:18:18.259Z,7.73
2022-10-04T23:20:21.609Z,7.87
2022-10-04T23:22:28.024Z,8.00
2022-10-04T23:24:31.750Z,8.07
2022-10-04T23:26:39.201Z,8.07
2022-10-04T23:28:42.273Z,7.63
2022-10-04T23:30:46.500Z,7.70
2022-10-04T23:32:51.048Z,7.00
2022-10-04T23:34:57.045Z,7.87
2022-10-04T23:37:00.147Z,7.57
2022-10-04T23:39:03.214Z,7.07
2022-10-04T23:41:10.559Z,7.37
2022-10-04T23:43:19.416Z,7.67
2022-10-04T23:45:23.423Z,7.53
2022-10-04T23:47:32.510Z,7.03
2022-10-04T23:49:35.473Z,8.00
2022-10-04T23:51:39.776Z,6.90
2022-10-04T23:53:43.763Z,7.23
2022-10-04T23:55:47.081Z,6.37
2022-10-04T23:57:50.588Z,6.73
2022-10-04T23:59:53.937Z,7.07
